createdAt,value
2019-05-11T00:02:08.592Z,47.38
2019-05-11T00:04:34.418Z,49.10
2019-05-11T00:07:00.295Z,62.50
2019-05-11T00:09:26.808Z,66.70
2019-05-11T00:11:52.678Z,65.57
2019-05-11T00:14:18.962Z,71.22
2019-05-11T00:16:44.837Z,86.78
2019-05-11T00:19:11.010Z,73.25
2019-05-11T00:21:37.246Z,72.22
2019-05-11T00:24:03.475Z,82.12
2019-05-11T00:26:29.307Z,87.72
2019-05-11T00:28:55.146Z,93.67
2019-05-11T00:31:21.622Z,92.75
2019-05-11T00:33:47.844Z,75.83
2019-05-11T00:36:14.081Z,53.42
2019-05-11T00:38:39.929Z,62.03
2019-05-11T00:41:06.137Z,66.37
2019-05-11T00:43:32.002Z,66.37
2019-05-11T00:45:57.831Z,76.30
2019-05-11T00:48:24.044Z,74.22
2019-05-11T00:50:49.918Z,80.15
2019-05-11T00:53:15.790Z,97.05
2019-05-11T00:55:41.962Z,111.10
2019-05-11T00:58:08.191Z,102.87
2019-05-11T01:00:33.986Z,86.08
2019-05-11T01:03:00.136Z,107.07
2019-05-11T01:05:26.376Z,93.82
2019-05-11T01:07:53.014Z,64.07
2019-05-11T01:10:25.589Z,67.62
2019-05-11T01:12:46.997Z,76.53
2019-05-11T01:15:13.230Z,76.12
2019-05-11T01:17:39.450Z,88.78
2019-05-11T01:20:05.983Z,79.72
2019-05-11T01:22:31.858Z,104.50
2019-05-11T01:24:57.766Z,122.20
2019-05-11T01:27:23.957Z,89.92
2019-05-11T01:29:49.834Z,92.62
2019-05-11T01:32:15.656Z,102.92
2019-05-11T01:34:41.474Z,86.00
2019-05-11T01:37:07.356Z,80.22
2019-05-11T01:39:33.187Z,75.08
2019-05-11T01:41:59.009Z,65.22
2019-05-11T01:44:25.329Z,52.40
2019-05-11T01:46:51.557Z,51.90
2019-05-11T01:49:17.800Z,41.92
2019-05-11T01:51:44.032Z,44.35
2019-05-11T01:54:10.252Z,31.10
2019-05-11T01:56:36.130Z,40.30
2019-05-11T01:59:02.294Z,52.98
2019-05-11T02:01:28.529Z,62.00
2019-05-11T02:03:54.396Z,86.95
2019-05-11T02:06:20.310Z,79.87
2019-05-11T02:08:46.213Z,74.70
2019-05-11T02:11:15.973Z,74.97
2019-05-11T02:13:40.897Z,75.92
2019-05-11T02:16:07.159Z,108.22
2019-05-11T02:18:33.610Z,84.03
2019-05-11T02:20:59.510Z,92.67
2019-05-11T02:23:25.422Z,80.62
2019-05-11T02:25:51.255Z,59.45
2019-05-11T02:28:17.121Z,51.40
2019-05-11T02:30:43.524Z,55.80
2019-05-11T02:33:09.753Z,48.68
2019-05-11T02:35:36.245Z,65.17
2019-05-11T02:38:02.067Z,75.92
2019-05-11T02:40:28.295Z,75.37
2019-05-11T02:42:54.156Z,77.85
2019-05-11T02:45:28.525Z,61.45
2019-05-11T02:47:54.758Z,45.98
2019-05-11T02:50:20.627Z,61.02
2019-05-11T02:52:46.497Z,53.50
2019-05-11T02:55:12.322Z,49.60
2019-05-11T02:57:38.859Z,62.43
2019-05-11T03:00:08.038Z,64.47
2019-05-11T03:02:34.179Z,84.55
2019-05-11T03:05:00.360Z,75.05
2019-05-11T03:07:26.647Z,89.35
2019-05-11T03:09:52.870Z,96.35
2019-05-11T03:12:18.714Z,95.53
2019-05-11T03:14:44.924Z,84.90
2019-05-11T03:17:18.751Z,97.02
2019-05-11T03:19:44.564Z,111.65
2019-05-11T03:22:10.393Z,87.37
2019-05-11T03:24:36.792Z,88.55
2019-05-11T03:27:02.623Z,100.27
2019-05-11T03:29:28.452Z,104.58
2019-05-11T03:31:54.792Z,85.35
2019-05-11T03:34:21.303Z,104.90
2019-05-11T03:36:47.138Z,114.32
2019-05-11T03:39:13.444Z,112.28
2019-05-11T03:41:40.000Z,104.80
2019-05-11T03:44:05.881Z,92.02
2019-05-11T03:46:32.040Z,83.45
2019-05-11T03:48:57.937Z,68.85
2019-05-11T03:51:23.816Z,70.78
2019-05-11T03:53:49.641Z,80.87
2019-05-11T03:56:15.465Z,77.20
2019-05-11T03:58:41.337Z,72.05
2019-05-11T04:01:07.178Z,78.00
2019-05-11T04:03:33.053Z,64.00
2019-05-11T04:05:58.860Z,59.48
2019-05-11T04:08:24.698Z,60.98
2019-05-11T04:10:50.573Z,48.52
2019-05-11T04:13:16.399Z,44.50
2019-05-11T04:15:42.689Z,37.90
2019-05-11T04:43:06.635Z,88.65
2019-05-11T04:45:33.071Z,105.43
2019-05-11T04:47:58.945Z,115.52
2019-05-11T04:50:24.778Z,124.35
2019-05-11T04:52:50.943Z,105.35
2019-05-11T04:55:16.814Z,109.70
2019-05-11T04:57:42.994Z,101.92
2019-05-11T05:00:09.219Z,114.05
2019-05-11T05:02:35.092Z,128.23
2019-05-11T05:05:00.913Z,128.38
2019-05-11T05:07:27.104Z,127.82
2019-05-11T05:09:52.932Z,123.82
2019-05-11T05:12:19.128Z,134.07
2019-05-11T05:14:45.005Z,131.07
2019-05-11T05:17:10.868Z,123.07
2019-05-11T05:19:36.713Z,129.47
2019-05-11T05:22:02.571Z,130.63
2019-05-11T05:24:28.427Z,143.93
2019-05-11T05:26:54.882Z,140.68
2019-05-11T05:29:20.723Z,133.37
2019-05-11T05:31:46.550Z,149.47
2019-05-11T05:34:12.408Z,147.80
2019-05-11T05:36:38.555Z,145.20
2019-05-11T05:39:08.791Z,136.05
2019-05-11T05:41:34.020Z,131.03
2019-05-11T05:43:59.883Z,130.65
2019-05-11T05:46:25.758Z,118.15
2019-05-11T05:48:51.667Z,126.15
2019-05-11T05:51:17.480Z,117.65
2019-05-11T05:53:43.318Z,111.45
2019-05-11T05:56:09.196Z,129.97
2019-05-11T05:58:35.071Z,114.10
2019-05-11T06:01:01.253Z,121.45
2019-05-11T06:03:27.122Z,120.45
2019-05-11T06:05:53.629Z,134.40
2019-05-11T06:08:20.062Z,131.22
2019-05-11T06:10:46.309Z,139.47
2019-05-11T06:13:12.165Z,135.15
2019-05-11T06:15:38.342Z,133.85
2019-05-11T06:18:04.185Z,120.35
2019-05-11T06:20:30.069Z,118.90
2019-05-11T06:22:55.903Z,122.28
2019-05-11T06:25:21.730Z,102.80
2019-05-11T06:27:47.593Z,107.37
2019-05-11T06:30:13.686Z,114.35
2019-05-11T06:32:39.519Z,126.27
2019-05-11T06:35:06.534Z,100.40
2019-05-11T06:37:32.770Z,92.55
2019-05-11T06:39:59.202Z,95.47
2019-05-11T06:42:25.076Z,101.42
2019-05-11T06:44:51.249Z,108.52
2019-05-11T06:47:17.095Z,98.42
2019-05-11T06:49:42.975Z,90.42
2019-05-11T06:52:08.840Z,80.45
2019-05-11T06:54:34.679Z,78.17
2019-05-11T06:57:00.534Z,93.52
2019-05-11T06:59:26.984Z,81.40
2019-05-11T07:01:53.214Z,83.15
2019-05-11T07:04:19.535Z,80.57
2019-05-11T07:06:45.366Z,68.80
2019-05-11T07:09:11.201Z,66.07
2019-05-11T07:11:37.404Z,71.25
2019-05-11T07:14:19.125Z,63.38
2019-05-11T07:16:30.899Z,62.50
2019-05-11T07:18:56.778Z,71.12
2019-05-11T07:21:23.133Z,50.12
2019-05-11T07:23:49.366Z,67.15
2019-05-11T07:26:15.243Z,61.68
2019-05-11T07:28:41.415Z,56.30
2019-05-11T07:31:07.650Z,58.08
2019-05-11T07:33:33.869Z,50.70
2019-05-11T07:35:59.701Z,55.90
2019-05-11T07:38:27.669Z,45.40
2019-05-11T07:40:53.256Z,37.93
2019-05-11T07:43:19.441Z,51.42
2019-05-11T07:45:45.282Z,47.60
2019-05-11T07:48:11.153Z,53.85
2019-05-11T07:50:38.768Z,44.85
2019-05-11T07:53:04.847Z,40.95
2019-05-11T07:55:30.964Z,51.15
2019-05-11T07:57:58.653Z,55.80
2019-05-11T08:00:25.104Z,49.53
2019-05-11T08:02:51.013Z,35.45
2019-05-11T08:05:17.986Z,39.58
2019-05-11T08:07:44.208Z,41.15
2019-05-11T08:10:10.108Z,36.03
2019-05-11T08:12:38.837Z,44.35
2019-05-11T08:15:12.475Z,47.85
2019-05-11T08:17:33.554Z,61.75
2019-05-11T08:20:00.031Z,66.20
2019-05-11T08:22:28.345Z,73.07
2019-05-11T08:24:53.874Z,66.95
2019-05-11T08:27:19.733Z,78.07
2019-05-11T08:29:45.606Z,62.45
2019-05-11T08:32:11.857Z,76.97
2019-05-11T08:34:39.700Z,85.70
2019-05-11T08:37:05.249Z,78.35
2019-05-11T08:39:31.120Z,96.45
2019-05-11T08:41:58.954Z,92.92
2019-05-11T08:44:24.737Z,85.35
2019-05-11T08:46:50.583Z,96.05
2019-05-11T08:49:18.802Z,93.55
2019-05-11T08:51:44.256Z,90.15
2019-05-11T08:54:10.379Z,87.60
2019-05-11T08:56:38.292Z,88.05
2019-05-11T08:59:03.858Z,94.25
2019-05-11T09:01:31.342Z,76.90
2019-05-11T09:03:58.344Z,76.00
2019-05-11T09:06:24.418Z,101.70
2019-05-11T09:08:50.614Z,72.45
2019-05-11T09:11:18.827Z,96.00
2019-05-11T09:13:44.078Z,75.37
2019-05-11T09:16:10.526Z,76.42
2019-05-11T09:18:38.424Z,72.37
2019-05-11T09:21:04.631Z,85.00
2019-05-11T09:23:36.960Z,85.03
2019-05-11T09:25:58.720Z,55.78
2019-05-11T09:28:24.491Z,66.42
2019-05-11T09:30:50.401Z,62.48
2019-05-11T09:33:20.476Z,65.92
2019-05-11T09:35:49.725Z,75.12
2019-05-11T09:38:11.579Z,76.02
2019-05-11T09:40:38.572Z,83.37
2019-05-11T09:43:04.610Z,92.67
2019-05-11T09:45:44.650Z,94.67
2019-05-11T09:47:58.650Z,93.20
2019-05-11T09:50:24.542Z,88.72
2019-05-11T09:52:50.932Z,107.10
2019-05-11T09:55:18.810Z,111.85
2019-05-11T09:57:45.026Z,108.95
2019-05-11T10:00:11.254Z,123.90
2019-05-11T10:02:38.486Z,111.77
2019-05-11T10:05:08.253Z,111.62
2019-05-11T10:07:34.452Z,101.20
2019-05-11T10:10:00.674Z,111.92
2019-05-11T10:12:28.473Z,110.92
2019-05-11T10:14:54.191Z,95.95
2019-05-11T10:17:20.594Z,97.33
2019-05-11T10:19:49.477Z,81.85
2019-05-11T10:22:14.538Z,74.85
2019-05-11T10:24:40.916Z,82.95
2019-05-11T10:27:08.467Z,73.72
2019-05-11T10:29:34.711Z,71.30
2019-05-11T10:32:00.567Z,75.25
2019-05-11T10:34:28.565Z,69.58
2019-05-11T10:36:54.705Z,66.57
2019-05-11T10:39:20.573Z,68.72
2019-05-11T10:41:48.000Z,71.20
2019-05-11T10:44:14.463Z,68.40
2019-05-11T10:46:40.361Z,68.83
2019-05-11T10:49:08.076Z,61.13
2019-05-11T10:51:34.157Z,66.17
2019-05-11T10:53:59.985Z,63.73
2019-05-11T10:56:28.388Z,60.30
2019-05-11T10:58:54.321Z,52.93
2019-05-11T11:01:20.633Z,57.35
2019-05-11T11:03:48.381Z,49.73
2019-05-11T11:06:14.731Z,47.17
2019-05-11T11:08:40.577Z,43.98
2019-05-11T11:11:08.096Z,45.60
2019-05-11T11:13:34.649Z,41.58
2019-05-11T11:16:02.107Z,48.30
2019-05-11T11:18:28.776Z,41.20
2019-05-11T11:20:55.013Z,43.55
2019-05-11T11:23:21.555Z,37.80
2019-05-11T11:25:48.256Z,37.08
2019-05-11T11:28:14.836Z,33.55
2019-05-11T11:30:40.698Z,28.70
2019-05-11T11:33:08.002Z,30.08
2019-05-11T11:35:34.330Z,32.05
2019-05-11T11:38:00.214Z,34.43
2019-05-11T11:40:28.214Z,27.42
2019-05-11T11:42:54.035Z,25.15
2019-05-11T11:45:19.919Z,23.80
2019-05-11T11:47:45.785Z,25.23
2019-05-11T11:50:11.562Z,25.35
2019-05-11T11:52:38.328Z,25.12
2019-05-11T11:55:05.232Z,26.33
2019-05-11T11:57:31.625Z,27.07
2019-05-11T11:59:58.710Z,26.27
2019-05-11T12:02:24.893Z,33.13
2019-05-11T12:04:50.760Z,30.40
2019-05-11T12:07:17.999Z,32.10
2019-05-11T12:09:44.406Z,35.13
2019-05-11T12:12:10.333Z,31.45
2019-05-11T12:14:38.362Z,31.02
2019-05-11T12:17:07.920Z,28.98
2019-05-11T12:19:32.194Z,28.67
2019-05-11T12:21:58.241Z,27.17
2019-05-11T12:24:24.250Z,27.05
2019-05-11T12:26:50.126Z,29.60
2019-05-11T12:29:15.991Z,30.32
2019-05-11T12:31:42.110Z,38.00
2019-05-11T12:34:08.756Z,45.17
2019-05-11T12:36:35.023Z,45.67
2019-05-11T12:39:00.877Z,55.28
2019-05-11T12:41:28.057Z,49.90
2019-05-11T12:43:54.089Z,51.37
2019-05-11T12:46:20.296Z,52.03
2019-05-11T12:48:48.528Z,53.13
2019-05-11T12:51:14.802Z,43.30
2019-05-11T12:53:40.637Z,40.00
2019-05-11T12:56:08.248Z,37.93
2019-05-11T12:58:34.164Z,26.70
2019-05-11T13:00:59.988Z,26.33
2019-05-11T13:03:27.812Z,23.60
2019-05-11T13:05:53.526Z,27.07
2019-05-11T13:08:19.634Z,26.82
2019-05-11T13:10:47.722Z,22.22
2019-05-11T13:13:13.140Z,22.30
2019-05-11T13:15:39.553Z,19.82
2019-05-11T13:18:08.233Z,18.37
2019-05-11T13:20:33.425Z,16.82
2019-05-11T13:22:59.877Z,17.07
2019-05-11T13:25:28.099Z,17.52
2019-05-11T13:27:53.408Z,16.60
2019-05-11T13:30:19.261Z,16.73
2019-05-11T13:32:45.125Z,18.27
2019-05-11T13:35:10.970Z,13.83
2019-05-11T13:37:38.624Z,13.65
2019-05-11T13:40:07.614Z,14.53
2019-05-11T13:42:33.009Z,11.95
2019-05-11T13:44:59.209Z,15.10
2019-05-11T13:47:24.985Z,12.33
2019-05-11T13:49:51.271Z,13.60
2019-05-11T13:52:17.999Z,15.35
2019-05-11T13:54:44.194Z,14.95
2019-05-11T13:57:10.025Z,11.90
2019-05-11T13:59:38.286Z,12.93
2019-05-11T14:02:03.617Z,14.45
2019-05-11T14:04:29.875Z,13.30
2019-05-11T14:06:58.177Z,10.93
2019-05-11T14:09:23.774Z,10.25
2019-05-11T14:11:49.646Z,14.00
2019-05-11T14:14:18.188Z,14.35
2019-05-11T14:16:43.678Z,13.18
2019-05-11T14:19:10.206Z,12.30
2019-05-11T14:21:38.263Z,12.65
2019-05-11T14:24:04.208Z,11.68
2019-05-11T14:26:30.049Z,14.23
2019-05-11T14:28:57.792Z,12.58
2019-05-11T14:31:24.122Z,12.37
2019-05-11T14:33:49.966Z,10.38
2019-05-11T14:36:18.087Z,11.25
2019-05-11T14:38:43.457Z,15.03
2019-05-11T14:41:09.858Z,9.73
2019-05-11T14:43:35.696Z,12.47
2019-05-11T14:46:01.901Z,14.60
2019-05-11T14:48:30.274Z,12.05
2019-05-11T14:50:59.084Z,12.43
2019-05-11T14:53:24.040Z,11.15
2019-05-11T14:55:49.949Z,13.95
2019-05-11T14:58:15.975Z,12.35
2019-05-11T15:00:42.213Z,11.08
2019-05-11T15:03:08.049Z,21.60
2019-05-11T15:05:33.985Z,13.05
2019-05-11T15:08:00.465Z,11.33
2019-05-11T15:10:27.823Z,12.58
2019-05-11T15:12:53.801Z,12.18
2019-05-11T15:15:19.873Z,12.30
2019-05-11T15:17:45.616Z,13.45
2019-05-11T15:20:12.754Z,11.55
2019-05-11T15:22:39.062Z,12.53
2019-05-11T15:25:04.980Z,12.82
2019-05-11T15:27:31.114Z,12.80
2019-05-11T15:29:58.768Z,11.38
2019-05-11T15:32:25.205Z,11.73
2019-05-11T15:34:51.216Z,11.00
2019-05-11T15:37:17.837Z,9.95
2019-05-11T15:39:44.001Z,9.08
2019-05-11T15:42:16.633Z,8.55
2019-05-11T15:44:37.951Z,8.98
2019-05-11T15:47:04.225Z,9.60
2019-05-11T15:49:30.448Z,10.93
2019-05-11T15:51:57.939Z,10.78
2019-05-11T15:54:24.247Z,9.30
2019-05-11T15:56:50.107Z,10.18
2019-05-11T15:59:16.086Z,10.35
2019-05-11T16:01:42.422Z,7.30
2019-05-11T16:04:09.222Z,7.37
2019-05-11T16:06:35.692Z,8.13
2019-05-11T16:09:01.549Z,10.45
2019-05-11T16:11:28.353Z,12.65
2019-05-11T16:13:54.781Z,14.35
2019-05-11T16:16:20.627Z,10.08
2019-05-11T16:18:48.389Z,12.90
2019-05-11T16:21:14.456Z,11.05
2019-05-11T16:23:40.298Z,12.98
2019-05-11T16:26:08.507Z,12.37
2019-05-11T16:28:34.536Z,11.55
2019-05-11T16:31:00.389Z,11.15
2019-05-11T16:33:26.217Z,11.03
2019-05-11T16:35:52.076Z,16.87
2019-05-11T16:38:19.051Z,12.37
2019-05-11T16:40:45.248Z,15.28
2019-05-11T16:43:11.457Z,13.20
2019-05-11T16:45:37.336Z,12.70
2019-05-11T16:48:03.620Z,12.93
2019-05-11T16:50:29.839Z,13.48
2019-05-11T16:52:58.284Z,11.88
2019-05-11T16:55:23.697Z,12.73
2019-05-11T16:57:49.846Z,12.37
2019-05-11T17:00:15.612Z,15.83
2019-05-11T17:02:41.805Z,13.68
2019-05-11T17:05:08.434Z,14.60
2019-05-11T17:07:34.271Z,13.45
2019-05-11T17:10:00.128Z,13.72
2019-05-11T17:12:28.528Z,13.68
2019-05-11T17:14:58.441Z,13.43
2019-05-11T17:17:24.498Z,16.87
2019-05-11T17:19:50.365Z,14.85
2019-05-11T17:22:18.833Z,16.75
2019-05-11T17:24:44.426Z,19.45
2019-05-11T17:27:10.282Z,13.98
2019-05-11T17:29:38.124Z,12.50
2019-05-11T17:32:04.408Z,16.82
2019-05-11T17:34:30.944Z,13.75
2019-05-11T17:36:59.974Z,20.80
2019-05-11T17:39:25.450Z,15.83
2019-05-11T17:41:51.680Z,16.10
2019-05-11T17:44:18.550Z,15.65
2019-05-11T17:46:44.619Z,12.98
2019-05-11T17:49:10.498Z,15.32
2019-05-11T17:51:37.985Z,18.75
2019-05-11T17:54:04.008Z,13.72
2019-05-11T17:56:30.085Z,17.00
2019-05-11T17:58:58.350Z,16.77
2019-05-11T18:01:23.854Z,15.63
2019-05-11T18:03:50.311Z,17.92
2019-05-11T18:06:18.257Z,20.85
2019-05-11T18:08:44.406Z,14.25
2019-05-11T18:11:10.273Z,16.32
2019-05-11T18:13:36.103Z,14.28
2019-05-11T18:16:01.960Z,12.60
2019-05-11T18:18:29.142Z,15.23
2019-05-11T18:20:57.946Z,11.95
2019-05-11T18:23:23.698Z,8.40
2019-05-11T18:25:49.522Z,7.20
2019-05-11T18:28:15.360Z,7.72
2019-05-11T18:30:41.239Z,8.03
2019-05-11T18:33:08.326Z,5.50
2019-05-11T18:35:35.090Z,7.85
2019-05-11T18:38:01.595Z,6.72
2019-05-11T18:40:28.676Z,7.40
2019-05-11T18:42:54.912Z,10.78
2019-05-11T18:45:20.750Z,7.28
2019-05-11T18:47:48.906Z,9.38
2019-05-11T18:50:29.048Z,8.00
2019-05-11T18:52:42.361Z,8.25
2019-05-11T18:55:08.624Z,9.80
2019-05-11T18:57:34.458Z,5.47
2019-05-11T19:00:00.655Z,4.87
2019-05-11T19:02:27.927Z,5.67
2019-05-11T19:04:54.022Z,7.95
2019-05-11T19:07:20.456Z,4.42
2019-05-11T19:09:48.409Z,9.05
2019-05-11T19:12:14.719Z,10.38
2019-05-11T19:14:41.109Z,7.95
2019-05-11T19:17:07.724Z,8.60
2019-05-11T19:19:33.997Z,8.68
2019-05-11T19:21:59.886Z,6.03
2019-05-11T19:24:27.832Z,5.28
2019-05-11T19:26:53.817Z,7.95
2019-05-11T19:29:19.705Z,12.85
2019-05-11T19:31:47.673Z,9.35
2019-05-11T19:34:13.822Z,9.55
2019-05-11T19:36:39.751Z,6.45
2019-05-11T19:39:08.936Z,8.28
2019-05-11T19:41:35.125Z,8.45
2019-05-11T19:44:01.040Z,6.28
2019-05-11T19:46:28.044Z,7.58
2019-05-11T19:48:54.324Z,8.95
2019-05-11T19:51:20.154Z,6.12
2019-05-11T19:53:48.274Z,9.25
2019-05-11T19:56:14.282Z,11.60
2019-05-11T19:58:40.163Z,8.33
2019-05-11T20:01:08.443Z,8.28
2019-05-11T20:03:33.981Z,7.35
2019-05-11T20:05:59.797Z,11.55
2019-05-11T20:08:25.774Z,7.85
2019-05-11T20:10:51.644Z,6.62
2019-05-11T20:13:18.108Z,8.10
2019-05-11T20:15:44.166Z,10.20
2019-05-11T20:18:10.043Z,5.12
2019-05-11T20:20:37.612Z,10.45
2019-05-11T20:23:03.526Z,7.20
2019-05-11T20:25:29.453Z,6.28
2019-05-11T20:27:55.284Z,8.55
2019-05-11T20:30:22.234Z,6.85
2019-05-11T20:32:48.855Z,7.60
2019-05-11T20:35:15.534Z,8.73
2019-05-11T20:37:41.632Z,8.98
2019-05-11T20:40:09.211Z,8.73
2019-05-11T20:42:37.924Z,7.25
2019-05-11T20:45:04.213Z,10.23
2019-05-11T20:47:30.088Z,5.75
2019-05-11T20:49:58.600Z,8.60
2019-05-11T20:52:24.549Z,5.65
2019-05-11T20:54:50.382Z,8.10
2019-05-11T20:57:17.976Z,10.55
2019-05-11T20:59:44.061Z,8.05
2019-05-11T21:02:09.877Z,9.73
2019-05-11T21:04:35.725Z,10.38
2019-05-11T21:07:01.583Z,7.47
2019-05-11T21:09:29.025Z,8.65
2019-05-11T21:11:55.381Z,6.83
2019-05-11T21:14:21.848Z,7.12
2019-05-11T21:16:47.915Z,10.88
2019-05-11T21:19:14.201Z,7.70
2019-05-11T21:21:50.185Z,9.28
2019-05-11T21:24:08.522Z,5.30
2019-05-11T21:26:34.441Z,5.70
2019-05-11T21:29:00.677Z,7.83
2019-05-11T21:31:29.066Z,8.48
2019-05-11T21:33:54.559Z,10.80
2019-05-11T21:36:20.971Z,7.67
2019-05-11T21:38:48.196Z,7.58
2019-05-11T21:41:14.235Z,7.22
2019-05-11T21:43:40.093Z,8.95
2019-05-11T21:46:08.172Z,9.63
2019-05-11T21:48:33.877Z,7.20
2019-05-11T21:50:59.952Z,8.23
2019-05-11T21:53:25.986Z,8.00
2019-05-11T21:55:52.145Z,12.00
2019-05-11T21:58:18.406Z,5.95
2019-05-11T22:00:47.842Z,7.92
2019-05-11T22:03:13.918Z,8.53
2019-05-11T22:05:40.345Z,7.40
2019-05-11T22:08:08.612Z,7.62
2019-05-11T22:10:34.249Z,8.23
2019-05-11T22:13:00.669Z,7.65
2019-05-11T22:15:28.503Z,12.35
2019-05-11T22:17:54.788Z,9.95
2019-05-11T22:20:21.000Z,7.25
2019-05-11T22:22:47.630Z,10.20
2019-05-11T22:25:13.569Z,8.45
2019-05-11T22:27:39.433Z,10.75
2019-05-11T22:30:09.568Z,4.97
2019-05-11T22:32:38.054Z,5.72
2019-05-11T22:35:04.862Z,7.28
2019-05-11T22:37:30.702Z,8.03
2019-05-11T22:39:57.819Z,9.58
2019-05-11T22:42:24.125Z,6.60
2019-05-11T22:44:50.352Z,8.48
2019-05-11T22:47:17.814Z,7.72
2019-05-11T22:49:44.448Z,7.37
2019-05-11T22:52:10.362Z,6.95
2019-05-11T22:54:38.190Z,10.18
2019-05-11T22:57:03.878Z,7.33
2019-05-11T22:59:30.194Z,13.38
2019-05-11T23:01:56.069Z,5.65
2019-05-11T23:04:21.912Z,5.65
2019-05-11T23:06:48.374Z,7.00
2019-05-11T23:09:14.269Z,4.78
2019-05-11T23:11:40.427Z,10.05
2019-05-11T23:14:09.767Z,8.50
2019-05-11T23:16:35.425Z,5.97
2019-05-11T23:19:01.574Z,11.90
2019-05-11T23:21:30.227Z,12.18
2019-05-11T23:23:55.685Z,6.92
2019-05-11T23:26:21.824Z,7.97
2019-05-11T23:28:48.764Z,8.28
2019-05-11T23:31:15.299Z,8.48
2019-05-11T23:33:41.162Z,10.70
2019-05-11T23:36:07.795Z,6.72
2019-05-11T23:38:34.365Z,8.23
2019-05-11T23:41:00.230Z,8.75
2019-05-11T23:43:29.754Z,5.05
2019-05-11T23:45:54.689Z,5.95
2019-05-11T23:48:20.560Z,8.10
2019-05-11T23:50:46.429Z,9.03
2019-05-11T23:53:12.550Z,11.10
2019-05-11T23:55:38.381Z,8.83
2019-05-11T23:58:04.342Z,6.62
